Time;durP1;ratioP1;P1;durP2;ratioP2;P2;SDS_P1;SDS_P2;PMS_P1;PMS_P2;Temp;Humidity;BMP_temperature;BMP_pressure;BME280_temperature;BME280_humidity;BME280_pressure;Samples;Min_cycle;Max_cycle;Signal;HPM_P1;HPM_P2
2022/04/16 00:01:53;;;;;;;2.00;1.67;;;3.50;99.10;;;;;;615675;233;26524;-63
2022/04/16 00:04:19;;;;;;;1.80;1.42;;;3.50;99.00;;;;;;615562;234;26585;-63
2022/04/16 00:06:47;;;;;;;2.00;1.90;;;3.50;99.10;;;;;;615708;233;26589;-63
2022/04/16 00:09:14;;;;;;;1.60;1.50;;;3.40;98.80;;;;;;615687;234;26599;-63
2022/04/16 00:11:41;;;;;;;1.52;1.40;;;3.40;98.70;;;;;;615671;233;26910;-63
2022/04/16 00:14:08;;;;;;;1.75;1.65;;;3.40;99.50;;;;;;615647;234;26556;-63
2022/04/16 00:16:35;;;;;;;1.52;1.40;;;3.30;99.30;;;;;;615624;234;26580;-63
2022/04/16 00:19:04;;;;;;;1.60;1.50;;;3.20;99.30;;;;;;615587;233;26568;-63
2022/04/16 00:21:31;;;;;;;1.37;1.27;;;3.20;99.30;;;;;;615674;234;26568;-63
2022/04/16 00:23:59;;;;;;;2.08;1.70;;;3.20;99.50;;;;;;617217;231;26861;-63
2022/04/16 00:26:27;;;;;;;1.50;1.40;;;3.20;99.60;;;;;;616821;233;26584;-63
2022/04/16 00:28:55;;;;;;;1.92;1.23;;;3.20;99.90;;;;;;616551;232;26603;-63
2022/04/16 00:31:22;;;;;;;1.30;1.20;;;3.20;99.90;;;;;;616476;233;26571;-63
2022/04/16 00:33:49;;;;;;;1.33;1.23;;;3.20;99.60;;;;;;616248;232;26560;-64
2022/04/16 00:36:16;;;;;;;1.90;1.45;;;3.30;99.60;;;;;;616236;232;26921;-64
2022/04/16 00:38:43;;;;;;;3.90;1.65;;;3.20;99.70;;;;;;616254;233;26571;-63
2022/04/16 00:41:12;;;;;;;1.73;1.50;;;3.20;99.80;;;;;;616092;232;26566;-64
2022/04/16 00:43:39;;;;;;;2.28;1.40;;;3.10;99.90;;;;;;615823;232;26647;-65
2022/04/16 00:46:07;;;;;;;7.65;1.50;;;3.00;99.90;;;;;;615891;232;26639;-64
2022/04/16 00:48:34;;;;;;;3.28;1.30;;;3.00;99.90;;;;;;615848;233;26856;-64
2022/04/16 00:51:01;;;;;;;2.25;1.20;;;3.00;99.90;;;;;;616006;232;26658;-65
2022/04/16 00:53:28;;;;;;;1.40;1.30;;;2.90;99.90;;;;;;615964;232;26840;-65
2022/04/16 00:55:55;;;;;;;2.95;1.30;;;2.90;99.90;;;;;;615954;233;26608;-64
2022/04/16 00:58:23;;;;;;;4.12;1.65;;;2.90;99.90;;;;;;615703;232;26613;-65
2022/04/16 01:00:50;;;;;;;1.50;1.40;;;2.80;99.90;;;;;;615625;234;26568;-64
2022/04/16 01:03:19;;;;;;;2.50;1.20;;;2.80;99.90;;;;;;615595;233;26552;-64
2022/04/16 01:05:46;;;;;;;2.62;1.45;;;2.80;99.90;;;;;;615623;234;26548;-64
2022/04/16 01:08:13;;;;;;;1.35;1.25;;;2.80;99.90;;;;;;615686;234;26894;-65
2022/04/16 01:10:41;;;;;;;1.52;1.35;;;2.80;99.90;;;;;;615380;228;26565;-64
2022/04/16 01:13:08;;;;;;;1.45;1.35;;;2.70;99.90;;;;;;615637;233;26914;-65
2022/04/16 01:15:35;;;;;;;1.45;1.30;;;2.60;99.90;;;;;;615622;233;26561;-64
2022/04/16 01:18:03;;;;;;;1.62;1.40;;;2.60;99.90;;;;;;615636;233;26592;-64
2022/04/16 01:20:33;;;;;;;1.35;1.23;;;2.50;99.90;;;;;;615633;233;26574;-64
2022/04/16 01:22:58;;;;;;;2.85;1.20;;;2.50;99.90;;;;;;615475;234;26578;-64
2022/04/16 01:25:27;;;;;;;2.05;1.40;;;2.50;99.90;;;;;;615477;234;26556;-64
2022/04/16 01:27:52;;;;;;;1.30;1.20;;;2.40;99.90;;;;;;615446;234;27239;-65
2022/04/16 01:30:19;;;;;;;1.37;1.27;;;2.40;99.90;;;;;;615542;234;26560;-64
2022/04/16 01:32:48;;;;;;;1.52;1.35;;;2.40;99.90;;;;;;615442;234;26574;-65
2022/04/16 01:35:14;;;;;;;1.17;1.17;;;2.40;99.90;;;;;;616847;231;26599;-64
2022/04/16 01:37:42;;;;;;;1.15;1.10;;;2.40;99.90;;;;;;616890;232;26613;-64
2022/04/16 01:40:10;;;;;;;2.12;1.23;;;2.40;99.90;;;;;;616544;232;26949;-65
2022/04/16 01:42:37;;;;;;;1.08;1.08;;;2.40;99.90;;;;;;616497;233;26571;-64
2022/04/16 01:45:05;;;;;;;1.60;1.12;;;2.40;99.90;;;;;;616299;232;26785;-64
2022/04/16 01:47:36;;;;;;;1.60;1.25;;;2.50;99.90;;;;;;616255;228;26604;-64
2022/04/16 01:50:05;;;;;;;1.67;1.20;;;2.50;99.90;;;;;;616246;233;26579;-64
2022/04/16 01:52:33;;;;;;;4.35;1.33;;;2.40;99.90;;;;;;616122;233;26619;-64
2022/04/16 01:54:58;;;;;;;2.05;1.23;;;2.50;99.90;;;;;;615853;233;26819;-64
2022/04/16 01:57:26;;;;;;;1.48;1.15;;;2.40;99.90;;;;;;615942;233;26624;-64
2022/04/16 01:59:53;;;;;;;1.20;1.20;;;2.50;99.90;;;;;;615950;233;26882;-64
2022/04/16 02:02:20;;;;;;;1.45;1.00;;;2.40;99.90;;;;;;615962;232;26619;-64
2022/04/16 02:04:47;;;;;;;2.15;1.30;;;2.50;99.90;;;;;;615911;232;26711;-64
2022/04/16 02:07:15;;;;;;;2.03;1.55;;;2.50;99.90;;;;;;615921;232;26647;-64
2022/04/16 02:09:42;;;;;;;1.73;1.30;;;2.40;99.90;;;;;;615861;233;26600;-64
2022/04/16 02:12:10;;;;;;;1.30;1.30;;;2.50;99.90;;;;;;615622;234;26569;-64
2022/04/16 02:14:37;;;;;;;2.15;1.37;;;2.50;99.90;;;;;;615619;233;26833;-65
2022/04/16 02:17:04;;;;;;;3.33;1.30;;;2.50;99.90;;;;;;615634;234;26583;-64
2022/04/16 02:19:34;;;;;;;1.73;1.37;;;2.50;99.90;;;;;;615620;233;26572;-64
2022/04/16 02:21:58;;;;;;;1.67;1.50;;;2.40;99.90;;;;;;615438;234;26569;-64
2022/04/16 02:24:27;;;;;;;1.40;1.30;;;2.40;99.90;;;;;;615608;234;26578;-64
2022/04/16 02:26:55;;;;;;;1.40;1.30;;;2.50;99.90;;;;;;615547;234;26808;-64
2022/04/16 02:29:20;;;;;;;4.12;1.10;;;2.50;99.90;;;;;;615425;234;26556;-64
2022/04/16 02:31:47;;;;;;;1.48;1.30;;;2.50;99.90;;;;;;615693;233;26611;-64
2022/04/16 02:34:16;;;;;;;1.20;1.10;;;2.60;99.90;;;;;;615570;234;26589;-64
2022/04/16 02:36:43;;;;;;;1.30;1.25;;;2.50;99.90;;;;;;615534;234;26591;-64
2022/04/16 02:39:10;;;;;;;2.50;1.20;;;2.50;99.90;;;;;;615617;234;26842;-64
2022/04/16 02:41:38;;;;;;;1.10;1.10;;;2.50;99.90;;;;;;615624;233;26562;-65
2022/04/16 02:44:05;;;;;;;1.20;1.20;;;2.50;99.90;;;;;;615690;233;26800;-65
2022/04/16 02:49:06;;;;;;;2.65;1.30;;;2.50;99.90;;;;;;616987;233;26566;-65
2022/04/16 02:51:33;;;;;;;2.25;1.20;;;2.50;99.90;;;;;;616677;232;26610;-65
2022/04/16 02:54:01;;;;;;;1.20;1.10;;;2.60;99.90;;;;;;616605;232;26563;-64
2022/04/16 02:56:28;;;;;;;2.37;1.00;;;2.50;99.90;;;;;;616321;232;26816;-65
2022/04/16 02:58:55;;;;;;;1.35;1.15;;;2.50;99.90;;;;;;616333;233;26535;-65
2022/04/16 03:01:23;;;;;;;1.87;1.20;;;2.60;99.90;;;;;;616272;232;26829;-65
2022/04/16 03:03:51;;;;;;;1.40;1.30;;;2.70;99.90;;;;;;616202;232;26552;-65
2022/04/16 03:06:19;;;;;;;1.00;1.00;;;2.70;99.90;;;;;;615951;233;26626;-65
2022/04/16 03:08:46;;;;;;;0.93;0.93;;;2.70;99.90;;;;;;615916;233;26596;-65
2022/04/16 03:11:13;;;;;;;1.48;1.35;;;2.80;99.90;;;;;;615974;233;26596;-65
2022/04/16 03:13:40;;;;;;;1.25;1.15;;;2.80;99.90;;;;;;615901;228;26835;-65
2022/04/16 03:18:40;;;;;;;1.12;1.12;;;2.80;99.90;;;;;;615927;233;26828;-65
2022/04/16 03:21:11;;;;;;;2.80;1.05;;;2.80;99.90;;;;;;615903;233;26671;-65
2022/04/16 03:23:36;;;;;;;1.00;1.00;;;2.90;99.90;;;;;;615843;234;26544;-65
2022/04/16 03:26:03;;;;;;;1.30;1.20;;;2.90;99.90;;;;;;615979;233;26795;-65
2022/04/16 03:28:32;;;;;;;3.50;1.10;;;2.80;99.90;;;;;;615842;233;26569;-65
2022/04/16 03:30:59;;;;;;;1.48;1.20;;;2.90;99.90;;;;;;615580;234;26815;-65
2022/04/16 03:33:26;;;;;;;1.10;1.00;;;2.90;99.90;;;;;;615648;233;26795;-65
2022/04/16 03:35:54;;;;;;;0.93;0.93;;;2.90;99.90;;;;;;615589;234;26566;-65
2022/04/16 03:38:22;;;;;;;1.05;1.05;;;3.00;99.90;;;;;;615686;233;26578;-65
2022/04/16 03:40:49;;;;;;;1.00;1.00;;;2.90;99.90;;;;;;615737;234;27195;-65
2022/04/16 03:43:16;;;;;;;1.10;1.10;;;3.00;99.90;;;;;;615641;234;26559;-65
2022/04/16 03:45:43;;;;;;;1.70;0.95;;;3.10;99.90;;;;;;615516;234;27300;-65
2022/04/16 03:48:10;;;;;;;1.15;1.15;;;3.00;99.90;;;;;;615777;234;26564;-65
2022/04/16 03:50:38;;;;;;;1.10;0.98;;;3.10;99.90;;;;;;615765;233;26553;-65
2022/04/16 03:53:06;;;;;;;3.10;1.00;;;3.10;99.90;;;;;;615710;233;26568;-65
2022/04/16 04:00:39;;;;;;;1.00;0.90;;;3.20;99.90;;;;;;616983;232;26564;-64
2022/04/16 04:03:07;;;;;;;1.30;1.20;;;3.30;99.90;;;;;;616677;233;26600;-64
2022/04/16 04:05:35;;;;;;;1.27;1.17;;;3.30;99.90;;;;;;616555;233;27113;-64
2022/04/16 04:08:01;;;;;;;1.10;1.10;;;3.30;99.90;;;;;;616263;233;26639;-64
2022/04/16 04:10:29;;;;;;;1.25;1.10;;;3.20;99.90;;;;;;616291;232;26813;-65
2022/04/16 04:12:57;;;;;;;0.98;0.98;;;3.40;99.90;;;;;;616313;232;26547;-64
2022/04/16 04:15:26;;;;;;;1.00;1.00;;;3.40;99.90;;;;;;616146;232;26572;-65
2022/04/16 04:17:52;;;;;;;0.95;0.95;;;3.30;99.90;;;;;;615813;233;26611;-64
2022/04/16 04:20:19;;;;;;;0.90;0.90;;;3.40;99.90;;;;;;615952;232;26622;-64
2022/04/16 04:22:46;;;;;;;0.80;0.80;;;3.40;99.90;;;;;;615934;232;26824;-66
2022/04/16 04:25:13;;;;;;;1.00;1.00;;;3.40;99.90;;;;;;615884;233;26610;-63
2022/04/16 04:27:41;;;;;;;0.93;0.93;;;3.40;99.90;;;;;;615877;232;26897;-63
2022/04/16 04:30:09;;;;;;;0.85;0.85;;;3.50;99.90;;;;;;615900;233;26615;-63
2022/04/16 04:32:37;;;;;;;0.93;0.93;;;3.50;99.90;;;;;;615899;232;26619;-65
2022/04/16 04:35:06;;;;;;;0.80;0.80;;;3.40;99.90;;;;;;615598;233;26581;-64
2022/04/16 04:37:33;;;;;;;1.15;1.05;;;3.40;99.90;;;;;;616037;234;26812;-64
2022/04/16 04:40:01;;;;;;;1.85;1.00;;;3.50;99.90;;;;;;616001;233;26529;-64
2022/04/16 04:42:29;;;;;;;1.60;1.17;;;3.60;99.90;;;;;;615912;234;26529;-64
2022/04/16 04:44:56;;;;;;;0.80;0.80;;;3.70;99.90;;;;;;616035;233;26538;-64
2022/04/16 04:47:23;;;;;;;1.12;1.02;;;3.50;99.90;;;;;;615999;233;26570;-64
2022/04/16 04:49:51;;;;;;;0.90;0.90;;;3.40;99.90;;;;;;616029;234;26532;-64
2022/04/16 04:52:23;;;;;;;0.85;0.85;;;3.40;99.90;;;;;;614272;234;26532;-64
2022/04/16 04:54:49;;;;;;;1.08;1.00;;;3.40;99.90;;;;;;612728;235;26589;-65
2022/04/16 04:57:17;;;;;;;1.33;1.30;;;3.60;99.90;;;;;;612450;233;26629;-64
2022/04/16 04:59:44;;;;;;;1.42;1.30;;;3.60;99.90;;;;;;612437;234;26848;-64
2022/04/16 05:02:11;;;;;;;1.15;0.90;;;3.70;99.90;;;;;;612428;233;26633;-64
2022/04/16 05:04:38;;;;;;;1.55;1.00;;;3.70;99.90;;;;;;612414;233;26867;-65
2022/04/16 05:07:07;;;;;;;1.58;0.90;;;3.70;99.90;;;;;;612483;235;26591;-65
2022/04/16 05:09:34;;;;;;;4.47;1.40;;;3.90;99.90;;;;;;613553;232;26947;-65
2022/04/16 05:12:02;;;;;;;0.80;0.80;;;4.10;99.90;;;;;;613755;232;26855;-65
2022/04/16 05:14:30;;;;;;;0.85;0.85;;;4.00;99.90;;;;;;613350;234;27293;-65
2022/04/16 05:16:57;;;;;;;0.70;0.70;;;4.00;99.90;;;;;;617228;230;26819;-65
2022/04/16 05:19:25;;;;;;;0.88;0.88;;;4.20;99.90;;;;;;615731;230;26559;-65
2022/04/16 05:21:53;;;;;;;6.62;0.82;;;4.30;99.90;;;;;;616267;233;26610;-65
2022/04/16 05:24:21;;;;;;;2.95;1.08;;;4.30;99.90;;;;;;615654;231;26566;-65
2022/04/16 05:26:48;;;;;;;1.25;0.95;;;4.40;99.90;;;;;;618425;229;26851;-64
2022/04/16 05:29:17;;;;;;;0.95;0.88;;;4.40;99.90;;;;;;616707;230;26519;-64
2022/04/16 05:31:43;;;;;;;5.62;0.95;;;4.40;99.90;;;;;;618294;230;26566;-65
2022/04/16 05:36:44;;;;;;;2.92;1.15;;;4.60;99.90;;;;;;615281;231;26592;-65
2022/04/16 05:39:11;;;;;;;4.45;1.10;;;4.60;99.90;;;;;;614920;231;26839;-65
2022/04/16 05:41:38;;;;;;;1.25;1.10;;;4.70;99.90;;;;;;615973;231;26537;-65
2022/04/16 05:44:05;;;;;;;1.30;1.20;;;4.80;99.90;;;;;;619161;230;26529;-65
2022/04/16 05:46:33;;;;;;;2.10;1.08;;;4.90;99.90;;;;;;615803;231;26589;-65
2022/04/16 05:49:00;;;;;;;5.20;1.23;;;4.90;99.90;;;;;;613225;234;27293;-65
2022/04/16 05:51:28;;;;;;;1.20;1.10;;;5.10;99.30;;;;;;612487;235;26612;-65
2022/04/16 05:53:55;;;;;;;2.92;1.00;;;5.20;99.90;;;;;;612416;233;26569;-65
2022/04/16 05:56:23;;;;;;;1.15;1.00;;;5.40;98.70;;;;;;612420;235;26647;-65
2022/04/16 05:58:50;;;;;;;1.10;1.00;;;5.40;98.70;;;;;;612401;233;26824;-65
2022/04/16 06:01:18;;;;;;;2.83;1.00;;;5.60;98.30;;;;;;612432;228;26624;-65
2022/04/16 06:03:45;;;;;;;3.45;0.88;;;5.60;98.20;;;;;;612410;234;26984;-65
2022/04/16 06:06:12;;;;;;;4.43;1.00;;;5.70;99.70;;;;;;612477;228;26588;-64
2022/04/16 06:08:39;;;;;;;1.27;1.12;;;5.80;98.80;;;;;;612444;233;26628;-65
2022/04/16 06:11:08;;;;;;;4.75;1.02;;;6.00;98.50;;;;;;612452;233;26607;-66
2022/04/16 06:13:34;;;;;;;8.30;1.55;;;5.90;98.40;;;;;;612429;235;26625;-75
2022/04/16 06:16:02;;;;;;;60.97;10.70;;;6.00;98.00;;;;;;612434;235;26654;-67
2022/04/16 06:18:29;;;;;;;123.53;19.62;;;6.20;98.90;;;;;;612507;233;26782;-67
2022/04/16 06:20:56;;;;;;;1999.90;292.50;;;6.20;97.90;;;;;;613413;232;26611;-68
2022/04/16 06:23:24;;;;;;;1999.90;304.85;;;6.40;98.40;;;;;;613728;234;26635;-66
2022/04/16 06:25:52;;;;;;;119.47;24.73;;;6.30;99.10;;;;;;613355;234;26545;-70
2022/04/16 06:28:20;;;;;;;105.47;20.65;;;6.20;97.50;;;;;;613356;232;26548;-66
2022/04/16 06:30:48;;;;;;;89.07;18.30;;;6.40;98.10;;;;;;613226;231;26618;-69
2022/04/16 06:33:16;;;;;;;69.97;16.23;;;6.40;97.40;;;;;;614736;230;26607;-67
2022/04/16 06:35:43;;;;;;;79.10;16.25;;;6.40;97.40;;;;;;613713;231;26599;-68
2022/04/16 06:38:10;;;;;;;66.20;15.60;;;6.40;97.00;;;;;;616412;231;26877;-68
2022/04/16 06:40:37;;;;;;;61.60;14.55;;;6.60;98.90;;;;;;612706;234;26561;-68
2022/04/16 06:43:05;;;;;;;37.60;10.38;;;6.70;98.40;;;;;;614565;233;26878;-68
2022/04/16 06:45:33;;;;;;;43.97;11.73;;;6.70;98.50;;;;;;613395;233;26830;-68
2022/04/16 06:48:01;;;;;;;45.55;10.20;;;7.00;97.00;;;;;;619880;231;26587;-68
2022/04/16 06:50:29;;;;;;;19.10;5.90;;;7.00;96.70;;;;;;616641;231;26567;-69
2022/04/16 06:52:58;;;;;;;40.25;10.50;;;7.10;96.30;;;;;;616649;231;26580;-70
2022/04/16 06:55:25;;;;;;;18.20;4.82;;;7.00;96.20;;;;;;619050;231;26563;-69
2022/04/16 06:57:52;;;;;;;31.10;7.95;;;7.00;99.00;;;;;;613419;231;26587;-69
2022/04/16 07:00:20;;;;;;;31.55;8.70;;;7.00;98.00;;;;;;614670;234;26597;-69
2022/04/16 07:02:47;;;;;;;21.35;6.65;;;7.00;95.80;;;;;;612467;233;26968;-68
2022/04/16 07:05:15;;;;;;;6.53;2.40;;;7.10;95.70;;;;;;612385;233;26581;-70
2022/04/16 07:07:42;;;;;;;17.05;5.57;;;7.40;99.70;;;;;;615094;234;26786;-69
2022/04/16 07:10:11;;;;;;;13.38;4.60;;;7.20;95.90;;;;;;615609;231;26587;-69
2022/04/16 07:12:38;;;;;;;2.45;2.12;;;7.00;97.20;;;;;;617707;231;26567;-67
2022/04/16 07:15:06;;;;;;;5.47;2.92;;;7.00;97.00;;;;;;614903;231;26652;-70
2022/04/16 07:17:34;;;;;;;9.68;3.42;;;6.90;94.40;;;;;;614921;233;26587;-69
2022/04/16 07:20:01;;;;;;;4.75;3.20;;;6.90;94.40;;;;;;615572;234;26814;-68
2022/04/16 07:22:29;;;;;;;3.62;2.58;;;6.70;95.10;;;;;;614540;233;26577;-68
2022/04/16 07:24:56;;;;;;;2.12;1.95;;;6.80;98.20;;;;;;612465;233;26804;-68
2022/04/16 07:27:23;;;;;;;3.92;2.05;;;7.00;95.40;;;;;;614692;232;26585;-68
2022/04/16 07:29:58;;;;;;;5.93;3.12;;;7.20;95.90;;;;;;620148;231;26822;-68
2022/04/16 07:32:18;;;;;;;5.07;3.28;;;7.40;95.60;;;;;;615886;231;26567;-69
2022/04/16 07:34:45;;;;;;;3.40;2.45;;;7.30;95.80;;;;;;619503;231;26841;-68
2022/04/16 07:37:13;;;;;;;2.03;1.85;;;7.30;95.10;;;;;;616450;231;26546;-68
2022/04/16 07:39:41;;;;;;;2.00;1.90;;;7.30;95.00;;;;;;620462;231;26577;-68
2022/04/16 07:42:08;;;;;;;2.90;1.50;;;7.30;93.60;;;;;;613790;233;26618;-68
2022/04/16 07:44:36;;;;;;;2.00;1.75;;;7.30;95.80;;;;;;614920;232;26554;-68
2022/04/16 07:47:05;;;;;;;1.87;1.67;;;7.40;95.60;;;;;;615138;233;26601;-69
2022/04/16 07:49:32;;;;;;;3.10;2.05;;;7.40;95.90;;;;;;615734;232;26572;-69
2022/04/16 07:51:59;;;;;;;3.90;1.55;;;7.50;93.70;;;;;;615835;233;26605;-69
2022/04/16 07:54:27;;;;;;;1.40;1.30;;;7.60;95.70;;;;;;615897;233;26607;-69
2022/04/16 07:56:55;;;;;;;1.20;1.10;;;7.70;93.80;;;;;;615618;233;26690;-71
2022/04/16 07:59:22;;;;;;;3.17;1.77;;;7.60;93.70;;;;;;615832;233;27269;-71
2022/04/16 08:01:49;;;;;;;1.70;1.60;;;7.70;95.30;;;;;;615940;233;26627;-68
2022/04/16 08:04:17;;;;;;;1.73;1.60;;;7.80;94.20;;;;;;615931;233;27148;-71
2022/04/16 08:06:44;;;;;;;1.73;1.62;;;8.00;92.20;;;;;;615934;233;26633;-69
2022/04/16 08:09:11;;;;;;;4.90;1.70;;;8.30;94.50;;;;;;615748;233;26800;-70
2022/04/16 08:11:39;;;;;;;2.72;1.55;;;8.50;93.00;;;;;;615705;234;26553;-69
2022/04/16 08:14:06;;;;;;;2.47;1.20;;;8.40;93.40;;;;;;615657;234;27237;-69
2022/04/16 08:16:33;;;;;;;1.70;1.25;;;8.30;92.50;;;;;;615617;233;26577;-69
2022/04/16 08:19:00;;;;;;;1.67;1.55;;;8.20;91.80;;;;;;615686;234;26581;-70
2022/04/16 08:21:29;;;;;;;1.25;1.10;;;8.50;92.50;;;;;;615707;234;26573;-69
2022/04/16 08:24:03;;;;;;;2.62;1.62;;;8.50;92.30;;;;;;615583;234;26584;-69
2022/04/16 08:26:23;;;;;;;3.92;1.45;;;8.50;91.20;;;;;;614772;234;26589;-69
2022/04/16 08:28:50;;;;;;;2.00;1.25;;;8.50;90.40;;;;;;615684;233;26785;-69
2022/04/16 08:31:17;;;;;;;1.85;1.25;;;8.50;90.10;;;;;;615726;233;26573;-69
2022/04/16 08:33:44;;;;;;;1.27;1.20;;;8.70;88.60;;;;;;615755;233;26553;-70
2022/04/16 08:36:12;;;;;;;1.70;1.35;;;8.70;90.00;;;;;;615655;233;26588;-69
2022/04/16 08:38:40;;;;;;;1.02;1.00;;;8.60;93.00;;;;;;615691;233;26564;-70
2022/04/16 08:41:08;;;;;;;1.35;1.20;;;8.70;92.60;;;;;;615684;234;26886;-69
2022/04/16 08:43:35;;;;;;;0.82;0.82;;;8.70;92.60;;;;;;616260;231;26871;-69
2022/04/16 08:46:03;;;;;;;1.00;1.00;;;8.80;91.70;;;;;;617094;228;26592;-69
2022/04/16 08:48:30;;;;;;;1.50;1.20;;;8.90;91.90;;;;;;616753;227;27149;-69
2022/04/16 08:50:58;;;;;;;1.00;1.00;;;8.70;87.70;;;;;;616855;232;26540;-69
2022/04/16 08:53:25;;;;;;;1.27;1.17;;;8.70;87.30;;;;;;616755;232;26532;-69
2022/04/16 08:55:52;;;;;;;0.98;0.95;;;8.80;82.00;;;;;;616604;232;26533;-70
2022/04/16 08:58:19;;;;;;;0.70;0.70;;;8.80;85.60;;;;;;616620;232;26793;-70
2022/04/16 09:00:47;;;;;;;1.92;1.00;;;8.90;89.70;;;;;;616626;233;26548;-69
2022/04/16 09:03:14;;;;;;;3.70;1.23;;;8.90;81.50;;;;;;616302;232;26837;-70
2022/04/16 09:05:41;;;;;;;1.23;1.00;;;8.80;79.20;;;;;;616291;232;26569;-69
2022/04/16 09:08:08;;;;;;;1.27;1.17;;;8.80;81.80;;;;;;616321;232;26634;-69
2022/04/16 09:10:38;;;;;;;1.58;1.10;;;9.30;80.00;;;;;;616351;233;26539;-70
2022/04/16 09:13:03;;;;;;;1.58;1.00;;;8.90;79.60;;;;;;615862;233;26612;-70
2022/04/16 09:15:31;;;;;;;1.08;1.00;;;8.90;79.80;;;;;;615827;233;26642;-70
2022/04/16 09:18:01;;;;;;;1.48;1.00;;;9.00;79.10;;;;;;615856;233;27386;-70
2022/04/16 09:20:30;;;;;;;2.33;0.98;;;9.00;79.00;;;;;;615735;233;26793;-70
2022/04/16 09:22:57;;;;;;;2.65;1.00;;;9.00;77.00;;;;;;615670;233;26602;-70
2022/04/16 09:25:25;;;;;;;1.15;1.00;;;9.00;75.30;;;;;;615686;233;26564;-70
2022/04/16 09:27:53;;;;;;;0.85;0.85;;;9.10;76.70;;;;;;615403;234;26597;-70
2022/04/16 09:30:23;;;;;;;0.80;0.80;;;9.10;76.60;;;;;;615743;228;26904;-70
2022/04/16 09:32:52;;;;;;;0.70;0.70;;;9.10;78.80;;;;;;615486;234;26569;-69
2022/04/16 09:35:29;;;;;;;0.73;0.73;;;9.20;79.00;;;;;;615600;234;26578;-70
2022/04/16 09:37:56;;;;;;;0.98;0.98;;;9.20;78.30;;;;;;615711;234;26548;-70
2022/04/16 09:40:24;;;;;;;0.98;0.98;;;9.30;75.20;;;;;;615720;232;26565;-68
2022/04/16 09:42:52;;;;;;;1.90;1.10;;;9.40;76.60;;;;;;615676;233;26580;-69
2022/04/16 09:45:20;;;;;;;1.02;0.90;;;9.50;74.50;;;;;;615556;234;26569;-69
2022/04/16 09:47:48;;;;;;;1.48;0.90;;;9.40;74.20;;;;;;615630;233;26593;-69
2022/04/16 09:50:15;;;;;;;0.73;0.73;;;9.50;71.80;;;;;;615618;232;26841;-69
2022/04/16 09:52:42;;;;;;;1.33;1.00;;;9.50;80.60;;;;;;615689;233;26571;-69
2022/04/16 09:55:09;;;;;;;1.10;0.73;;;9.60;82.80;;;;;;616533;231;26543;-69
2022/04/16 09:57:37;;;;;;;1.83;0.85;;;9.70;78.90;;;;;;617365;233;26569;-70
2022/04/16 10:00:05;;;;;;;0.80;0.80;;;9.60;83.90;;;;;;617088;232;26600;-70
2022/04/16 10:02:34;;;;;;;0.80;0.80;;;9.70;80.60;;;;;;616904;233;26774;-70
2022/04/16 10:05:00;;;;;;;1.02;1.02;;;9.70;74.50;;;;;;616558;233;26531;-69
2022/04/16 10:07:27;;;;;;;1.10;0.80;;;9.80;83.40;;;;;;616608;233;26566;-70
2022/04/16 10:09:55;;;;;;;1.08;0.93;;;9.70;80.90;;;;;;616615;232;26527;-70
2022/04/16 10:15:08;;;;;;;1.33;1.08;;;9.90;73.50;;;;;;616300;233;26571;-68
2022/04/16 10:17:39;;;;;;;0.85;0.82;;;9.90;76.00;;;;;;616223;233;26607;-68
2022/04/16 10:20:10;;;;;;;1.02;0.80;;;10.00;75.80;;;;;;615994;232;27141;-69
2022/04/16 10:22:37;;;;;;;0.98;0.98;;;10.00;70.10;;;;;;616012;232;26593;-69
2022/04/16 10:25:06;;;;;;;0.93;0.93;;;10.10;73.70;;;;;;615926;232;26600;-68
2022/04/16 10:27:33;;;;;;;0.80;0.80;;;10.10;74.20;;;;;;615965;232;26643;-68
2022/04/16 10:30:00;;;;;;;0.95;0.80;;;10.00;69.90;;;;;;615282;233;26858;-68
2022/04/16 10:32:28;;;;;;;0.88;0.88;;;10.10;76.50;;;;;;615766;232;26546;-68
2022/04/16 10:35:03;;;;;;;0.95;0.95;;;10.20;73.70;;;;;;614434;234;26780;-69
2022/04/16 10:37:30;;;;;;;1.37;0.93;;;10.20;71.90;;;;;;615668;228;26588;-69
2022/04/16 10:39:58;;;;;;;0.80;0.80;;;10.40;72.60;;;;;;614827;234;26584;-69
2022/04/16 10:42:28;;;;;;;1.10;0.90;;;10.40;71.60;;;;;;615676;234;26648;-69
2022/04/16 10:44:55;;;;;;;1.75;1.00;;;10.50;66.50;;;;;;615633;234;26771;-69
2022/04/16 10:47:23;;;;;;;0.75;0.75;;;10.50;69.10;;;;;;614324;234;26605;-70
2022/04/16 10:49:51;;;;;;;0.80;0.80;;;10.70;67.40;;;;;;615613;234;26901;-69
2022/04/16 10:52:19;;;;;;;1.00;0.98;;;10.70;67.90;;;;;;614908;234;26790;-70
2022/04/16 10:54:47;;;;;;;1.20;1.10;;;10.60;60.90;;;;;;615593;234;26564;-68
2022/04/16 10:57:21;;;;;;;0.82;0.82;;;10.60;74.90;;;;;;615534;234;26584;-70
2022/04/16 10:59:48;;;;;;;0.75;0.73;;;10.60;74.30;;;;;;615694;233;26561;-69
2022/04/16 11:02:20;;;;;;;0.90;0.90;;;10.80;67.00;;;;;;615620;233;26548;-69
2022/04/16 11:04:54;;;;;;;0.93;0.85;;;10.90;66.20;;;;;;615810;234;26572;-69
2022/04/16 11:07:23;;;;;;;1.27;0.90;;;10.90;66.20;;;;;;616656;231;26869;-66
2022/04/16 11:09:52;;;;;;;1.02;1.02;;;10.90;74.60;;;;;;616924;233;26609;-68
2022/04/16 11:12:20;;;;;;;1.00;1.00;;;10.80;73.20;;;;;;616648;232;26619;-68
2022/04/16 11:14:50;;;;;;;1.10;1.10;;;10.80;69.80;;;;;;616811;233;26818;-68
2022/04/16 11:17:17;;;;;;;0.80;0.80;;;10.70;62.20;;;;;;616385;232;26582;-67
2022/04/16 11:19:44;;;;;;;0.80;0.80;;;10.80;66.40;;;;;;616221;232;26788;-67
2022/04/16 11:22:11;;;;;;;0.85;0.82;;;10.80;65.10;;;;;;616275;228;26577;-67
2022/04/16 11:24:39;;;;;;;1.27;0.90;;;10.90;65.20;;;;;;616095;233;27176;-68
2022/04/16 11:34:45;;;;;;;0.82;0.82;;;11.10;77.20;;;;;;615965;233;26921;-67
2022/04/16 11:37:12;;;;;;;0.80;0.80;;;11.10;66.30;;;;;;615639;233;26609;-67
2022/04/16 11:39:40;;;;;;;1.10;1.10;;;11.10;62.30;;;;;;615929;232;26613;-67
2022/04/16 11:42:09;;;;;;;3.67;1.42;;;11.20;62.80;;;;;;615884;233;26838;-68
2022/04/16 11:44:38;;;;;;;0.80;0.80;;;11.10;62.70;;;;;;615561;234;26847;-68
2022/04/16 11:47:03;;;;;;;18.52;6.22;;;11.20;59.50;;;;;;615627;234;26590;-68
2022/04/16 11:49:31;;;;;;;1.17;1.02;;;11.30;74.60;;;;;;615510;234;26572;-68
2022/04/16 11:51:59;;;;;;;3.97;2.28;;;11.30;73.70;;;;;;615679;233;26589;-68
2022/04/16 11:54:27;;;;;;;1.98;1.10;;;11.40;68.50;;;;;;615588;233;26557;-68
2022/04/16 11:56:55;;;;;;;8.70;4.07;;;11.40;65.40;;;;;;615600;232;26851;-67
2022/04/16 11:59:28;;;;;;;1.12;1.02;;;11.50;65.40;;;;;;615551;234;26552;-67
2022/04/16 12:01:59;;;;;;;4.55;2.00;;;11.60;63.60;;;;;;615658;233;26791;-68
2022/04/16 12:04:34;;;;;;;2.17;1.00;;;11.70;62.30;;;;;;615660;233;26573;-68
2022/04/16 12:07:03;;;;;;;1.30;1.00;;;11.70;59.10;;;;;;615642;233;26589;-66
2022/04/16 12:09:33;;;;;;;3.83;1.08;;;11.70;59.00;;;;;;615677;234;26575;-67
2022/04/16 12:12:00;;;;;;;3.33;1.80;;;11.80;58.10;;;;;;615577;233;26548;-67
2022/04/16 12:14:27;;;;;;;0.95;0.95;;;11.80;64.40;;;;;;615474;234;26552;-68
2022/04/16 12:17:00;;;;;;;1.33;1.10;;;11.90;64.40;;;;;;615661;233;26592;-68
2022/04/16 12:19:31;;;;;;;2.58;1.25;;;11.80;56.00;;;;;;617001;231;26571;-67
2022/04/16 12:21:58;;;;;;;3.90;1.92;;;11.90;58.90;;;;;;616837;232;26572;-66
2022/04/16 12:24:27;;;;;;;1.27;1.17;;;11.90;62.00;;;;;;616507;232;26561;-67
2022/04/16 12:26:56;;;;;;;1.80;1.30;;;12.00;61.40;;;;;;616512;232;26556;-68
2022/04/16 12:29:26;;;;;;;2.75;1.00;;;12.00;61.40;;;;;;616266;233;26570;-67
2022/04/16 12:31:56;;;;;;;0.80;0.80;;;12.00;55.10;;;;;;616362;232;26553;-68
2022/04/16 12:34:23;;;;;;;0.82;0.82;;;12.20;55.90;;;;;;616196;232;26594;-68
2022/04/16 12:36:50;;;;;;;0.95;0.95;;;12.40;55.20;;;;;;616050;233;26833;-68
2022/04/16 12:39:17;;;;;;;2.58;0.77;;;12.60;56.40;;;;;;615941;232;26624;-68
2022/04/16 12:41:44;;;;;;;1.35;1.10;;;12.90;54.20;;;;;;615916;232;26860;-69
2022/04/16 12:44:11;;;;;;;1.40;1.00;;;13.00;52.70;;;;;;615850;233;26606;-69
2022/04/16 12:46:39;;;;;;;4.00;1.70;;;13.10;51.00;;;;;;615959;232;26619;-69
2022/04/16 12:49:07;;;;;;;1.35;0.80;;;13.70;50.20;;;;;;615945;233;26617;-67
2022/04/16 12:51:35;;;;;;;1.05;0.98;;;13.60;49.90;;;;;;615916;233;26612;-67
2022/04/16 12:54:02;;;;;;;1.10;1.00;;;13.90;52.90;;;;;;615838;232;26611;-67
2022/04/16 12:56:30;;;;;;;1.15;0.95;;;14.30;52.40;;;;;;615683;234;26591;-67
2022/04/16 12:58:58;;;;;;;1.00;1.00;;;14.30;52.40;;;;;;615679;233;26576;-67
2022/04/16 13:01:26;;;;;;;2.00;0.85;;;14.20;49.00;;;;;;615648;234;26563;-67
2022/04/16 13:03:52;;;;;;;1.20;1.00;;;14.30;49.40;;;;;;615988;232;26783;-67
2022/04/16 13:06:19;;;;;;;1.20;1.10;;;14.60;48.50;;;;;;615755;234;26572;-67
2022/04/16 13:08:47;;;;;;;0.98;0.98;;;14.90;52.30;;;;;;615713;234;26811;-67
2022/04/16 13:11:15;;;;;;;0.90;0.90;;;15.30;48.20;;;;;;615604;234;26559;-67
2022/04/16 13:13:41;;;;;;;0.80;0.73;;;15.40;47.10;;;;;;615619;233;26779;-67
2022/04/16 13:16:08;;;;;;;1.95;1.20;;;15.50;47.60;;;;;;615633;233;26579;-67
2022/04/16 13:18:35;;;;;;;0.90;0.90;;;16.10;50.80;;;;;;615670;233;26579;-67